Time;durP1;ratioP1;P1;durP2;ratioP2;P2;SDS_P1;SDS_P2;PMS_P1;PMS_P2;Temp;Humidity;BMP_temperature;BMP_pressure;BME280_temperature;BME280_humidity;BME280_pressure;Samples;Min_cycle;Max_cycle;Signal;HPM_P1;HPM_P2
2023/12/20 00:02:08;;;;;;;;;;;5.80;36.10;;;;;;5003678;28;19914;-72
2023/12/20 00:07:45;;;;;;;;;;;5.70;36.00;;;;;;4990680;28;19957;-79
2023/12/20 00:13:14;;;;;;;;;;;5.70;36.00;;;;;;4991330;28;19997;-79
2023/12/20 00:19:05;;;;;;;;;;;5.80;36.10;;;;;;4992772;28;19967;-79
2023/12/20 00:24:59;;;;;;;;;;;5.90;36.20;;;;;;4987801;28;19968;-79
2023/12/20 00:27:53;;;;;;;;;;;5.90;36.20;;;;;;4997670;28;19924;-80
2023/12/20 00:30:47;;;;;;;;;;;5.70;36.00;;;;;;4995013;28;19917;-79
2023/12/20 00:36:15;;;;;;;;;;;5.70;36.00;;;;;;4997538;28;19968;-79
2023/12/20 00:38:41;;;;;;;;;;;5.60;35.90;;;;;;4997179;28;19914;-79
2023/12/20 00:43:51;;;;;;;;;;;5.60;40.00;;;;;;4996114;28;19928;-72
2023/12/20 00:46:17;;;;;;;;;;;5.60;40.60;;;;;;4996925;28;20281;-72
2023/12/20 00:48:47;;;;;;;;;;;;;;;;;;4999792;28;19953;-72
2023/12/20 00:51:13;;;;;;;;;;;;;;;;;;5002826;28;20257;-71
2023/12/20 00:53:39;;;;;;;;;;;5.70;36.00;;;;;;4996775;28;19918;-72
2023/12/20 00:56:05;;;;;;;;;;;;;;;;;;4996068;28;19909;-72
2023/12/20 00:58:30;;;;;;;;;;;5.80;36.10;;;;;;4996184;28;20008;-72
2023/12/20 01:00:56;;;;;;;;;;;5.70;36.00;;;;;;5000272;28;19949;-72
2023/12/20 01:03:21;;;;;;;;;;;5.70;36.00;;;;;;4995444;28;19956;-72
2023/12/20 01:05:47;;;;;;;;;;;5.70;36.00;;;;;;4996935;28;19964;-79
2023/12/20 01:11:15;;;;;;;;;;;5.50;35.90;;;;;;4987662;28;20013;-79
2023/12/20 01:13:47;;;;;;;;;;;5.40;44.50;;;;;;4983462;28;20373;-79
2023/12/20 01:19:41;;;;;;;;;;;5.40;47.50;;;;;;4983399;28;20329;-79
2023/12/20 01:22:07;;;;;;;;;;;5.40;51.20;;;;;;5004474;28;19918;-72
2023/12/20 01:24:33;;;;;;;;;;;;;;;;;;4984175;28;19948;-72
2023/12/20 01:26:58;;;;;;;;;;;5.60;52.90;;;;;;4998196;28;19972;-72
2023/12/20 01:29:24;;;;;;;;;;;5.60;48.20;;;;;;4994939;28;19957;-72
2023/12/20 01:31:50;;;;;;;;;;;5.60;48.30;;;;;;4994946;28;19914;-72
2023/12/20 01:34:15;;;;;;;;;;;5.60;42.90;;;;;;4996156;28;19914;-72
2023/12/20 01:37:17;;;;;;;;;;;5.60;36.80;;;;;;4995490;28;19910;-79
2023/12/20 01:40:05;;;;;;;;;;;5.50;41.80;;;;;;4995149;28;19961;-79
2023/12/20 01:46:05;;;;;;;;;;;5.60;38.80;;;;;;4991612;28;19921;-80
2023/12/20 01:51:47;;;;;;;;;;;5.60;41.10;;;;;;4984530;28;19952;-79
2023/12/20 01:54:47;;;;;;;;;;;5.60;41.30;;;;;;5010469;28;19997;-79
2023/12/20 01:57:47;;;;;;;;;;;5.50;35.80;;;;;;4995839;28;19914;-80
2023/12/20 02:00:30;;;;;;;;;;;5.50;35.90;;;;;;4995622;28;19909;-79
2023/12/20 02:03:17;;;;;;;;;;;5.60;44.60;;;;;;4995724;28;19920;-79
2023/12/20 02:05:43;;;;;;;;;;;5.50;39.80;;;;;;4995833;28;19918;-71
2023/12/20 02:08:11;;;;;;;;;;;5.60;45.80;;;;;;5001412;28;20370;-72
2023/12/20 02:10:47;;;;;;;;;;;5.60;43.50;;;;;;4995287;28;19910;-72
2023/12/20 02:13:13;;;;;;;;;;;5.60;42.60;;;;;;4989456;28;19941;-72
2023/12/20 02:15:39;;;;;;;;;;;5.60;40.40;;;;;;4995326;28;19914;-71
2023/12/20 02:18:05;;;;;;;;;;;;;;;;;;4995314;28;19920;-72
2023/12/20 02:30:17;;;;;;;;;;;5.60;39.90;;;;;;4995092;28;19917;-79
2023/12/20 02:35:46;;;;;;;;;;;5.60;35.90;;;;;;4999882;28;19963;-72
2023/12/20 02:38:12;;;;;;;;;;;;;;;;;;4996206;28;20008;-72
2023/12/20 02:40:37;;;;;;;;;;;5.60;35.90;;;;;;4995774;28;19921;-72
2023/12/20 02:43:03;;;;;;;;;;;;;;;;;;4994547;28;19921;-72
2023/12/20 02:45:29;;;;;;;;;;;5.60;36.00;;;;;;5003628;28;20293;-72
2023/12/20 02:47:55;;;;;;;;;;;;;;;;;;4993538;28;19913;-72
2023/12/20 02:50:20;;;;;;;;;;;5.70;36.00;;;;;;4999020;28;19914;-72
2023/12/20 02:52:46;;;;;;;;;;;5.50;35.90;;;;;;4996738;28;19917;-80
2023/12/20 02:55:17;;;;;;;;;;;5.60;35.90;;;;;;4995446;28;19914;-79
2023/12/20 02:58:17;;;;;;;;;;;5.60;36.00;;;;;;4999840;28;19920;-79
2023/12/20 03:01:17;;;;;;;;;;;5.50;35.80;;;;;;5014303;28;20369;-79
2023/12/20 03:03:59;;;;;;;;;;;5.50;35.90;;;;;;5014497;28;19920;-80
2023/12/20 03:06:25;;;;;;;;;;;;;;;;;;5002058;28;20238;-72
2023/12/20 03:08:51;;;;;;;;;;;5.60;36.00;;;;;;5007433;28;19920;-72
2023/12/20 03:11:17;;;;;;;;;;;5.70;36.00;;;;;;4994164;28;20320;-71
2023/12/20 03:13:42;;;;;;;;;;;5.60;36.00;;;;;;4997744;28;19917;-72
2023/12/20 03:16:08;;;;;;;;;;;;;;;;;;4998001;28;20277;-71
2023/12/20 03:18:34;;;;;;;;;;;5.60;36.00;;;;;;4994804;28;19937;-72
2023/12/20 03:24:17;;;;;;;;;;;5.70;36.00;;;;;;4988692;28;19925;-79
2023/12/20 03:27:17;;;;;;;;;;;5.60;36.00;;;;;;4999623;28;19921;-79
2023/12/20 03:29:53;;;;;;;;;;;5.70;36.00;;;;;;5000294;28;19914;-79
2023/12/20 03:32:19;;;;;;;;;;;5.70;36.00;;;;;;5001146;28;19917;-79
2023/12/20 03:34:44;;;;;;;;;;;5.60;35.90;;;;;;4998793;28;20286;-79
2023/12/20 03:37:10;;;;;;;;;;;5.70;36.00;;;;;;5003408;28;20308;-72
2023/12/20 03:39:36;;;;;;;;;;;5.60;35.90;;;;;;5000520;28;19964;-74
2023/12/20 03:42:01;;;;;;;;;;;5.70;36.00;;;;;;5000242;28;19945;-74
2023/12/20 03:44:27;;;;;;;;;;;5.80;36.10;;;;;;5000750;28;19910;-72
2023/12/20 03:46:53;;;;;;;;;;;5.80;36.10;;;;;;5000697;28;19914;-72
2023/12/20 03:49:18;;;;;;;;;;;5.80;36.10;;;;;;5001077;28;20304;-71
2023/12/20 03:51:44;;;;;;;;;;;5.70;36.00;;;;;;5020800;28;20328;-72
2023/12/20 03:54:10;;;;;;;;;;;;;;;;;;5005242;28;19953;-72
2023/12/20 03:56:35;;;;;;;;;;;5.60;35.90;;;;;;5000126;28;19981;-72
2023/12/20 03:59:01;;;;;;;;;;;5.60;36.00;;;;;;4995414;28;19960;-72
2023/12/20 04:01:27;;;;;;;;;;;5.70;40.60;;;;;;5007919;28;20264;-72
2023/12/20 04:03:52;;;;;;;;;;;5.70;43.30;;;;;;5005659;28;19917;-72
2023/12/20 04:06:18;;;;;;;;;;;5.70;42.90;;;;;;5008197;28;19909;-72
2023/12/20 04:08:47;;;;;;;;;;;5.70;38.90;;;;;;5004991;28;20301;-72
2023/12/20 04:11:13;;;;;;;;;;;5.80;41.30;;;;;;4991891;28;20004;-72
2023/12/20 04:13:47;;;;;;;;;;;5.80;37.20;;;;;;5013671;28;20348;-73
2023/12/20 04:16:17;;;;;;;;;;;5.80;36.10;;;;;;5011459;28;19910;-72
2023/12/20 04:18:43;;;;;;;;;;;5.80;36.10;;;;;;5002690;28;19924;-72
2023/12/20 04:21:08;;;;;;;;;;;5.80;36.10;;;;;;5009303;28;19913;-72
2023/12/20 04:23:59;;;;;;;;;;;5.90;36.20;;;;;;4998241;28;19913;-79
2023/12/20 04:26:47;;;;;;;;;;;5.80;36.10;;;;;;4993131;28;19971;-79
2023/12/20 04:29:17;;;;;;;;;;;5.80;36.10;;;;;;4999695;28;21675;-80
2023/12/20 04:31:47;;;;;;;;;;;5.80;36.10;;;;;;4997777;28;19913;-79
2023/12/20 04:34:47;;;;;;;;;;;5.90;36.20;;;;;;4997378;28;19918;-79
2023/12/20 04:37:17;;;;;;;;;;;5.80;36.10;;;;;;4986621;28;19910;-79
2023/12/20 04:42:47;;;;;;;;;;;5.90;36.20;;;;;;4995185;28;19941;-79
2023/12/20 04:45:19;;;;;;;;;;;;;;;;;;4996641;28;19914;-79
2023/12/20 04:47:46;;;;;;;;;;;5.80;40.50;;;;;;4996943;28;19913;-72
2023/12/20 04:50:13;;;;;;;;;;;5.90;36.20;;;;;;4997084;28;19914;-72
2023/12/20 04:59:17;;;;;;;;;;;5.70;36.00;;;;;;4977652;28;20270;-79
2023/12/20 05:02:17;;;;;;;;;;;5.60;35.90;;;;;;4977394;28;20350;-79
2023/12/20 05:05:17;;;;;;;;;;;5.50;35.80;;;;;;4977571;28;19914;-79
2023/12/20 05:07:43;;;;;;;;;;;5.50;35.80;;;;;;5008864;28;19910;-72
2023/12/20 05:10:11;;;;;;;;;;;5.60;35.90;;;;;;5009413;28;19921;-72
2023/12/20 05:12:37;;;;;;;;;;;5.50;35.90;;;;;;4997392;28;20309;-72
2023/12/20 05:15:03;;;;;;;;;;;;;;;;;;5004834;28;19909;-72
2023/12/20 05:17:28;;;;;;;;;;;5.40;35.80;;;;;;4997411;28;20006;-72
2023/12/20 05:19:54;;;;;;;;;;;5.30;43.70;;;;;;5004969;28;19911;-72
2023/12/20 05:22:20;;;;;;;;;;;;;;;;;;4981543;28;19915;-71
2023/12/20 05:24:53;;;;;;;;;;;5.20;44.20;;;;;;4992249;28;20376;-72
2023/12/20 05:27:19;;;;;;;;;;;5.10;46.80;;;;;;4995849;28;20011;-72
2023/12/20 05:29:45;;;;;;;;;;;;;;;;;;4992514;28;20053;-72
2023/12/20 05:32:11;;;;;;;;;;;5.10;40.50;;;;;;5002083;28;19914;-72
2023/12/20 05:34:37;;;;;;;;;;;;;;;;;;4995808;28;19914;-72
2023/12/20 05:37:09;;;;;;;;;;;4.90;35.40;;;;;;4989317;28;19926;-78
2023/12/20 05:39:35;;;;;;;;;;;4.80;42.80;;;;;;4997248;28;19914;-79
2023/12/20 05:45:17;;;;;;;;;;;;;;;;;;4987714;28;20436;-79
2023/12/20 05:47:47;;;;;;;;;;;4.70;57.10;;;;;;4995883;28;19910;-79
2023/12/20 05:50:17;;;;;;;;;;;;;;;;;;4990383;28;19914;-79
2023/12/20 05:52:43;;;;;;;;;;;4.70;64.90;;;;;;4996263;28;19949;-80
2023/12/20 05:55:17;;;;;;;;;;;4.70;66.00;;;;;;5001543;28;19920;-79
2023/12/20 05:57:43;;;;;;;;;;;4.70;64.60;;;;;;4996629;28;19910;-79
2023/12/20 06:00:12;;;;;;;;;;;4.60;62.40;;;;;;4995609;28;19917;-79
2023/12/20 06:02:47;;;;;;;;;;;4.60;62.80;;;;;;4995554;28;19914;-79
2023/12/20 06:05:47;;;;;;;;;;;4.60;58.70;;;;;;5011656;28;19910;-79
2023/12/20 06:08:17;;;;;;;;;;;4.60;51.10;;;;;;4995709;28;20005;-82
2023/12/20 06:10:48;;;;;;;;;;;4.50;48.50;;;;;;5011274;28;19910;-83
2023/12/20 06:13:17;;;;;;;;;;;;;;;;;;4994847;28;19933;-83
2023/12/20 06:15:47;;;;;;;;;;;4.50;36.50;;;;;;5006222;28;19910;-82
2023/12/20 06:18:17;;;;;;;;;;;4.50;35.00;;;;;;4997540;28;19914;-81
2023/12/20 06:20:47;;;;;;;;;;;4.40;35.00;;;;;;4996856;28;19920;-81
2023/12/20 06:23:17;;;;;;;;;;;;;;;;;;5005173;28;19976;-72
2023/12/20 06:25:43;;;;;;;;;;;;;;;;;;4987298;28;19917;-73
2023/12/20 06:28:10;;;;;;;;;;;4.40;35.00;;;;;;4995721;28;19937;-73
2023/12/20 06:30:35;;;;;;;;;;;4.40;35.00;;;;;;4996788;28;20265;-73
2023/12/20 06:33:06;;;;;;;;;;;4.20;34.80;;;;;;4995944;28;19914;-73
2023/12/20 06:35:32;;;;;;;;;;;4.10;34.70;;;;;;4977773;28;20341;-72
2023/12/20 06:44:04;;;;;;;;;;;;;;;;;;4984614;28;20005;-80
2023/12/20 06:49:32;;;;;;;;;;;3.90;34.50;;;;;;4994813;28;19982;-80
2023/12/20 06:52:35;;;;;;;;;;;3.80;34.50;;;;;;4994688;28;20005;-80
2023/12/20 07:01:11;;;;;;;;;;;3.90;34.50;;;;;;4993208;28;19917;-79
2023/12/20 07:24:58;;;;;;;;;;;4.50;43.00;;;;;;5004931;28;20431;-80
2023/12/20 07:27:23;;;;;;;;;;;;;;;;;;4988211;28;19918;-80
2023/12/20 07:32:52;;;;;;;;;;;4.70;35.20;;;;;;4994401;28;19921;-81
2023/12/20 07:38:24;;;;;;;;;;;4.90;35.40;;;;;;4994601;28;19917;-80
2023/12/20 07:40:50;;;;;;;;;;;4.90;35.40;;;;;;4994062;28;19917;-74
2023/12/20 07:43:17;;;;;;;;;;;4.80;35.30;;;;;;4999749;28;19918;-74
2023/12/20 07:45:47;;;;;;;;;;;;;;;;;;4994285;28;19914;-74
2023/12/20 07:48:17;;;;;;;;;;;4.80;25.50;;;;;;4993933;28;19914;-74
2023/12/20 07:50:47;;;;;;;;;;;4.70;23.40;;;;;;4994178;28;19993;-73
2023/12/20 07:53:13;;;;;;;;;;;4.60;21.90;;;;;;5003028;28;20012;-74
2023/12/20 07:55:42;;;;;;;;;;;4.60;21.10;;;;;;4995266;28;19957;-80
2023/12/20 07:58:08;;;;;;;;;;;4.60;21.10;;;;;;4994459;28;20001;-81
2023/12/20 08:00:45;;;;;;;;;;;4.70;22.80;;;;;;4993199;28;20367;-81
2023/12/20 08:03:29;;;;;;;;;;;4.80;21.30;;;;;;4985220;28;19920;-81
2023/12/20 08:06:00;;;;;;;;;;;4.80;20.40;;;;;;5000203;28;19914;-81
2023/12/20 08:08:29;;;;;;;;;;;4.90;17.40;;;;;;4997500;28;19933;-80
2023/12/20 08:10:57;;;;;;;;;;;4.90;16.80;;;;;;4998302;28;19993;-74
2023/12/20 08:13:25;;;;;;;;;;;5.00;15.20;;;;;;5017937;28;20400;-74
2023/12/20 08:15:51;;;;;;;;;;;5.10;10.20;;;;;;5005114;28;19917;-73
2023/12/20 08:18:17;;;;;;;;;;;5.20;8.70;;;;;;5005096;28;19917;-74
2023/12/20 08:20:43;;;;;;;;;;;;;;;;;;4989628;28;20358;-74
2023/12/20 08:23:11;;;;;;;;;;;;;;;;;;4995835;28;19914;-73
2023/12/20 08:25:37;;;;;;;;;;;5.20;5.50;;;;;;4997486;28;20008;-75
2023/12/20 08:28:03;;;;;;;;;;;5.30;4.60;;;;;;4990968;28;19964;-74
2023/12/20 08:30:30;;;;;;;;;;;;;;;;;;4989001;28;19910;-74
2023/12/20 08:33:00;;;;;;;;;;;5.40;3.30;;;;;;4986949;28;19918;-74
2023/12/20 08:35:25;;;;;;;;;;;5.30;1.70;;;;;;5008264;28;19924;-74
2023/12/20 08:37:51;;;;;;;;;;;5.30;1.80;;;;;;5000599;28;19968;-74
2023/12/20 08:40:29;;;;;;;;;;;5.20;3.50;;;;;;5002615;28;19939;-80
2023/12/20 08:48:48;;;;;;;;;;;5.20;5.50;;;;;;5005752;28;20008;-80
2023/12/20 08:54:17;;;;;;;;;;;5.50;3.70;;;;;;4996584;28;19917;-80
2023/12/20 08:56:59;;;;;;;;;;;5.50;1.00;;;;;;5010603;28;19947;-80
2023/12/20 08:59:25;;;;;;;;;;;5.50;1.00;;;;;;4999538;28;19917;-80
2023/12/20 09:04:54;;;;;;;;;;;5.50;1.00;;;;;;4997011;28;19936;-80
2023/12/20 09:10:22;;;;;;;;;;;5.60;1.00;;;;;;4996673;28;19924;-80
2023/12/20 09:13:11;;;;;;;;;;;5.70;1.00;;;;;;4996669;28;19910;-81
2023/12/20 09:16:06;;;;;;;;;;;5.80;1.00;;;;;;4996893;28;19960;-81
2023/12/20 09:24:41;;;;;;;;;;;6.10;1.00;;;;;;4994912;28;20265;-73
2023/12/20 09:27:07;;;;;;;;;;;6.10;1.00;;;;;;4985386;28;19918;-73
2023/12/20 09:29:33;;;;;;;;;;;6.20;1.00;;;;;;4995887;28;20009;-73
2023/12/20 09:31:58;;;;;;;;;;;6.40;1.00;;;;;;4992533;28;19918;-74
2023/12/20 09:34:25;;;;;;;;;;;6.40;1.00;;;;;;5006879;28;20392;-74
2023/12/20 09:36:59;;;;;;;;;;;6.50;1.00;;;;;;5005094;28;19910;-74
2023/12/20 09:39:25;;;;;;;;;;;6.50;1.00;;;;;;5003606;28;19927;-75
2023/12/20 09:44:36;;;;;;;;;;;6.70;1.00;;;;;;4995907;28;19920;-80
2023/12/20 09:47:35;;;;;;;;;;;6.70;1.00;;;;;;4999194;28;19910;-81
2023/12/20 09:50:06;;;;;;;;;;;6.70;1.00;;;;;;4994820;28;19914;-81
2023/12/20 09:52:47;;;;;;;;;;;6.80;1.00;;;;;;4997592;28;19910;-81
2023/12/20 09:55:19;;;;;;;;;;;6.90;1.00;;;;;;5010943;28;20304;-74
2023/12/20 09:57:47;;;;;;;;;;;7.00;1.00;;;;;;5000465;28;19948;-74
2023/12/20 10:00:14;;;;;;;;;;;7.00;1.00;;;;;;4995233;28;19953;-74
2023/12/20 10:02:45;;;;;;;;;;;7.00;1.00;;;;;;4999584;28;19924;-74
2023/12/20 10:05:15;;;;;;;;;;;7.00;1.00;;;;;;4984012;28;19910;-74
2023/12/20 10:07:41;;;;;;;;;;;7.00;1.00;;;;;;4995783;28;19968;-75
2023/12/20 10:16:12;;;;;;;;;;;7.00;1.00;;;;;;4994637;28;20017;-80
2023/12/20 10:19:11;;;;;;;;;;;7.20;1.00;;;;;;4995422;28;19957;-80
2023/12/20 10:24:48;;;;;;;;;;;7.40;1.00;;;;;;4983974;28;19928;-79
2023/12/20 10:27:13;;;;;;;;;;;7.60;1.00;;;;;;4986783;28;19918;-79
2023/12/20 10:29:41;;;;;;;;;;;7.60;1.00;;;;;;4975958;28;19920;-79
2023/12/20 10:32:24;;;;;;;;;;;7.60;1.00;;;;;;4984184;28;19910;-80
2023/12/20 10:35:06;;;;;;;;;;;7.50;1.00;;;;;;4982538;28;19984;-81
2023/12/20 10:37:41;;;;;;;;;;;7.50;1.00;;;;;;4992992;28;19910;-80
2023/12/20 10:40:12;;;;;;;;;;;7.60;1.00;;;;;;4995108;28;19910;-75
2023/12/20 10:42:40;;;;;;;;;;;7.60;1.00;;;;;;4994645;28;19925;-74
2023/12/20 10:45:06;;;;;;;;;;;7.70;1.00;;;;;;4993031;28;19913;-74
2023/12/20 10:47:41;;;;;;;;;;;7.70;1.00;;;;;;4988532;28;19960;-74
2023/12/20 10:50:08;;;;;;;;;;;7.60;1.00;;;;;;5003102;28;20328;-75
2023/12/20 10:52:48;;;;;;;;;;;7.60;1.00;;;;;;4995022;28;20012;-74
2023/12/20 10:55:14;;;;;;;;;;;7.70;1.00;;;;;;5004409;28;19909;-77
2023/12/20 10:57:39;;;;;;;;;;;7.60;1.00;;;;;;4998857;28;19914;-74
2023/12/20 11:00:18;;;;;;;;;;;7.70;1.00;;;;;;4995105;28;19917;-75
2023/12/20 11:02:49;;;;;;;;;;;7.60;1.00;;;;;;5003419;28;19964;-74
2023/12/20 11:05:15;;;;;;;;;;;;;;;;;;4992470;28;19957;-74
2023/12/20 11:07:41;;;;;;;;;;;;;;;;;;4997821;28;19917;-74
2023/12/20 11:10:29;;;;;;;;;;;7.70;1.00;;;;;;4984518;28;20376;-74
2023/12/20 11:13:00;;;;;;;;;;;7.60;1.00;;;;;;4987607;28;19960;-75
2023/12/20 11:15:27;;;;;;;;;;;7.50;1.00;;;;;;4986849;28;20332;-75
2023/12/20 11:17:58;;;;;;;;;;;7.50;1.00;;;;;;5001035;28;19933;-75
2023/12/20 11:20:50;;;;;;;;;;;7.60;1.00;;;;;;4990800;28;19914;-75
2023/12/20 11:23:16;;;;;;;;;;;7.60;1.00;;;;;;5009371;28;20254;-75
2023/12/20 11:25:55;;;;;;;;;;;7.60;1.00;;;;;;5014276;28;19916;-75
2023/12/20 11:28:22;;;;;;;;;;;7.70;1.00;;;;;;4982115;28;19918;-75
2023/12/20 11:30:50;;;;;;;;;;;7.70;1.00;;;;;;4994230;28;19910;-75
2023/12/20 11:33:16;;;;;;;;;;;7.70;1.00;;;;;;5009619;28;19914;-75
2023/12/20 11:35:48;;;;;;;;;;;7.80;1.00;;;;;;4992902;28;19918;-75
2023/12/20 11:38:14;;;;;;;;;;;8.00;1.00;;;;;;4994632;28;19979;-75
2023/12/20 11:40:40;;;;;;;;;;;7.90;1.00;;;;;;4982075;28;20364;-78
2023/12/20 11:43:12;;;;;;;;;;;7.90;1.00;;;;;;5003987;28;19914;-74
2023/12/20 11:45:37;;;;;;;;;;;8.00;1.00;;;;;;4998046;28;20008;-75
2023/12/20 11:48:05;;;;;;;;;;;;;;;;;;5005595;28;20004;-74
2023/12/20 11:50:36;;;;;;;;;;;8.10;1.00;;;;;;4998531;28;19914;-74
2023/12/20 11:53:11;;;;;;;;;;;8.20;1.00;;;;;;5003608;28;19968;-74
2023/12/20 11:55:42;;;;;;;;;;;8.20;1.00;;;;;;5004389;28;19914;-74
2023/12/20 11:58:09;;;;;;;;;;;8.20;1.00;;;;;;5003010;28;19914;-74
2023/12/20 12:00:36;;;;;;;;;;;8.30;1.00;;;;;;5012304;28;19916;-76
2023/12/20 12:03:03;;;;;;;;;;;8.40;1.00;;;;;;4998153;28;19913;-76
2023/12/20 12:05:53;;;;;;;;;;;8.40;1.00;;;;;;4998866;28;19968;-75
2023/12/20 12:08:30;;;;;;;;;;;8.70;1.00;;;;;;5005975;28;19920;-75
2023/12/20 12:10:55;;;;;;;;;;;8.80;1.00;;;;;;4985867;28;20322;-78
2023/12/20 12:19:28;;;;;;;;;;;8.70;1.00;;;;;;4987246;28;20023;-77
2023/12/20 12:22:16;;;;;;;;;;;8.70;1.00;;;;;;4980103;28;19964;-77
2023/12/20 12:24:49;;;;;;;;;;;8.80;1.00;;;;;;4997598;28;19918;-76
2023/12/20 12:27:15;;;;;;;;;;;;;;;;;;5014656;28;19917;-73
2023/12/20 12:29:59;;;;;;;;;;;8.70;1.00;;;;;;5001202;28;19960;-74
2023/12/20 12:32:25;;;;;;;;;;;8.70;1.00;;;;;;4987402;28;19920;-73
2023/12/20 12:34:50;;;;;;;;;;;8.60;1.00;;;;;;4994145;28;19996;-74
2023/12/20 12:37:16;;;;;;;;;;;8.70;1.00;;;;;;4996967;28;19920;-74
2023/12/20 12:39:42;;;;;;;;;;;8.80;1.00;;;;;;4996491;28;19913;-73
2023/12/20 12:42:30;;;;;;;;;;;8.80;1.00;;;;;;5003876;28;20389;-77
2023/12/20 12:44:59;;;;;;;;;;;8.80;1.00;;;;;;4999140;28;19918;-77
2023/12/20 12:47:48;;;;;;;;;;;8.80;1.00;;;;;;4991804;28;19957;-77
2023/12/20 12:53:24;;;;;;;;;;;8.80;1.00;;;;;;4993669;28;19968;-77
2023/12/20 12:56:06;;;;;;;;;;;8.70;1.00;;;;;;4996403;28;19917;-77
2023/12/20 12:58:32;;;;;;;;;;;8.60;1.00;;;;;;4997200;28;19945;-73
2023/12/20 13:01:00;;;;;;;;;;;8.50;1.00;;;;;;5004721;28;20381;-73
2023/12/20 13:03:30;;;;;;;;;;;8.50;1.00;;;;;;4992946;28;19921;-73
2023/12/20 13:05:56;;;;;;;;;;;8.40;1.00;;;;;;5011506;28;19914;-74
2023/12/20 13:08:21;;;;;;;;;;;8.50;1.00;;;;;;5000683;28;19921;-73
2023/12/20 13:10:47;;;;;;;;;;;8.70;1.00;;;;;;4995896;28;20019;-72
2023/12/20 13:13:13;;;;;;;;;;;8.60;1.00;;;;;;4996829;28;19937;-73
2023/12/20 13:15:38;;;;;;;;;;;8.80;1.00;;;;;;4996555;28;19926;-74
2023/12/20 13:18:05;;;;;;;;;;;8.80;1.00;;;;;;4993711;28;19909;-73
2023/12/20 13:20:31;;;;;;;;;;;9.00;1.00;;;;;;4995437;28;19916;-73
2023/12/20 13:22:57;;;;;;;;;;;9.10;1.00;;;;;;4996567;28;19920;-74
2023/12/20 13:25:23;;;;;;;;;;;9.20;1.00;;;;;;4995900;28;20009;-73
2023/12/20 13:28:12;;;;;;;;;;;9.30;1.00;;;;;;5000974;28;19973;-77
2023/12/20 13:30:48;;;;;;;;;;;9.20;1.00;;;;;;4989234;28;20476;-76
2023/12/20 13:33:23;;;;;;;;;;;9.20;1.00;;;;;;5008251;28;19917;-76
2023/12/20 13:35:49;;;;;;;;;;;9.00;1.00;;;;;;4988556;28;19914;-77
2023/12/20 13:38:15;;;;;;;;;;;8.90;1.00;;;;;;4995924;28;19932;-77
2023/12/20 13:40:42;;;;;;;;;;;9.00;1.00;;;;;;4994583;28;20354;-80
2023/12/20 13:43:12;;;;;;;;;;;8.80;1.00;;;;;;4995579;28;19917;-79
2023/12/20 13:48:41;;;;;;;;;;;8.90;1.00;;;;;;4987895;28;19964;-79
2023/12/20 13:51:18;;;;;;;;;;;8.90;1.00;;;;;;4993770;28;20351;-77
2023/12/20 13:53:48;;;;;;;;;;;9.00;1.00;;;;;;4987861;28;20000;-76
2023/12/20 13:59:18;;;;;;;;;;;9.00;1.00;;;;;;4995335;28;20428;-73
2023/12/20 14:01:43;;;;;;;;;;;8.90;1.00;;;;;;4995217;28;19918;-72
2023/12/20 14:04:11;;;;;;;;;;;8.70;1.00;;;;;;5004603;28;19924;-73
2023/12/20 14:06:37;;;;;;;;;;;8.70;1.00;;;;;;5004028;28;20354;-74
2023/12/20 14:09:05;;;;;;;;;;;8.60;1.00;;;;;;4992261;28;19965;-73
2023/12/20 14:11:31;;;;;;;;;;;8.50;1.00;;;;;;4996916;28;19980;-73
2023/12/20 14:14:12;;;;;;;;;;;8.40;1.00;;;;;;4989917;28;19914;-76
2023/12/20 14:19:30;;;;;;;;;;;8.40;1.00;;;;;;4985724;28;19949;-77
2023/12/20 14:21:55;;;;;;;;;;;8.20;1.00;;;;;;5006171;28;19914;-77
2023/12/20 14:24:25;;;;;;;;;;;8.20;1.00;;;;;;4985100;28;20250;-76
2023/12/20 14:26:51;;;;;;;;;;;;;;;;;;4993649;28;19918;-76
2023/12/20 14:29:16;;;;;;;;;;;8.10;1.00;;;;;;4995955;28;20362;-72
2023/12/20 14:31:42;;;;;;;;;;;;;;;;;;4987125;28;19960;-72
2023/12/20 14:34:12;;;;;;;;;;;8.20;1.00;;;;;;4987710;28;20365;-72
2023/12/20 14:36:54;;;;;;;;;;;8.10;1.00;;;;;;4998493;28;19914;-73
2023/12/20 14:39:24;;;;;;;;;;;8.10;1.00;;;;;;4994246;28;20375;-74
2023/12/20 14:41:49;;;;;;;;;;;8.10;1.00;;;;;;4991802;28;19913;-73
2023/12/20 14:44:18;;;;;;;;;;;8.10;1.00;;;;;;4985820;28;19925;-76
2023/12/20 14:47:02;;;;;;;;;;;8.10;1.00;;;;;;4993814;28;19914;-76
2023/12/20 14:49:54;;;;;;;;;;;8.10;1.00;;;;;;5007031;28;19910;-76
2023/12/20 14:58:36;;;;;;;;;;;8.10;1.00;;;;;;4992960;28;19948;-76
2023/12/20 15:01:02;;;;;;;;;;;8.00;1.00;;;;;;5004145;28;19963;-73
2023/12/20 15:03:28;;;;;;;;;;;8.10;1.00;;;;;;4994489;28;19918;-73
2023/12/20 15:05:54;;;;;;;;;;;8.10;1.00;;;;;;5007757;28;19917;-73
2023/12/20 15:08:24;;;;;;;;;;;8.10;1.00;;;;;;4994768;28;19909;-73
2023/12/20 15:10:50;;;;;;;;;;;8.10;1.00;;;;;;4993859;28;20500;-73
2023/12/20 15:13:16;;;;;;;;;;;8.00;1.00;;;;;;5006031;28;19913;-73
2023/12/20 15:15:42;;;;;;;;;;;8.00;1.00;;;;;;4990265;28;19949;-77
2023/12/20 15:18:30;;;;;;;;;;;8.00;1.00;;;;;;4994718;28;19909;-77
2023/12/20 15:21:32;;;;;;;;;;;7.90;1.00;;;;;;5006771;28;19941;-77
2023/12/20 15:24:28;;;;;;;;;;;8.00;1.00;;;;;;4984581;28;20327;-78
2023/12/20 15:26:54;;;;;;;;;;;8.00;1.00;;;;;;4988402;28;19922;-77
2023/12/20 15:29:19;;;;;;;;;;;7.90;1.00;;;;;;4994965;28;19917;-73
2023/12/20 15:31:46;;;;;;;;;;;;;;;;;;4993308;28;20366;-72
2023/12/20 15:34:11;;;;;;;;;;;7.90;1.00;;;;;;4994315;28;20016;-74
2023/12/20 15:36:48;;;;;;;;;;;7.90;1.00;;;;;;4994259;28;19996;-74
2023/12/20 15:39:18;;;;;;;;;;;7.80;1.00;;;;;;4994655;28;19914;-74
2023/12/20 15:41:54;;;;;;;;;;;;;;;;;;4993066;28;19952;-74
2023/12/20 15:44:24;;;;;;;;;;;7.70;1.00;;;;;;4999615;28;19925;-75
2023/12/20 15:46:51;;;;;;;;;;;7.70;1.00;;;;;;4994576;28;19913;-74
2023/12/20 15:49:30;;;;;;;;;;;7.70;1.00;;;;;;5007695;28;19910;-79
2023/12/20 15:52:29;;;;;;;;;;;7.60;1.00;;;;;;4976166;28;19910;-78
2023/12/20 15:55:30;;;;;;;;;;;7.60;1.00;;;;;;4991266;28;19960;-79
2023/12/20 15:58:18;;;;;;;;;;;7.60;1.00;;;;;;4992975;28;20060;-79
2023/12/20 16:03:48;;;;;;;;;;;7.60;1.00;;;;;;4993482;28;19921;-78
2023/12/20 16:06:30;;;;;;;;;;;7.60;1.00;;;;;;4979545;28;20013;-79
2023/12/20 16:09:30;;;;;;;;;;;7.50;1.00;;;;;;4991672;28;19960;-79
2023/12/20 16:14:58;;;;;;;;;;;7.50;1.00;;;;;;4981206;28;19964;-80
2023/12/20 16:17:24;;;;;;;;;;;7.50;1.00;;;;;;4981462;28;19910;-79
2023/12/20 16:20:00;;;;;;;;;;;7.50;1.00;;;;;;4976451;28;19910;-75
2023/12/20 16:22:30;;;;;;;;;;;7.50;1.00;;;;;;4990907;28;19910;-76
2023/12/20 16:25:30;;;;;;;;;;;7.60;1.00;;;;;;4989840;28;19909;-82
2023/12/20 16:30:58;;;;;;;;;;;7.60;1.00;;;;;;4997316;28;19999;-72
2023/12/20 16:33:59;;;;;;;;;;;7.50;1.00;;;;;;4996527;28;19954;-83
2023/12/20 16:37:00;;;;;;;;;;;7.40;1.00;;;;;;4994973;28;19918;-80
2023/12/20 16:40:00;;;;;;;;;;;7.40;1.00;;;;;;4995622;28;19914;-81
2023/12/20 16:42:30;;;;;;;;;;;7.40;1.00;;;;;;4978006;28;20005;-77
2023/12/20 16:44:55;;;;;;;;;;;7.40;1.00;;;;;;4993411;28;20011;-75
2023/12/20 16:47:21;;;;;;;;;;;7.40;1.00;;;;;;4997028;28;19914;-75
2023/12/20 16:50:06;;;;;;;;;;;7.40;1.00;;;;;;4997263;28;19918;-75
2023/12/20 16:52:32;;;;;;;;;;;;;;;;;;4994862;28;19910;-77
2023/12/20 16:54:58;;;;;;;;;;;7.40;1.00;;;;;;4996432;28;19936;-75
2023/12/20 16:57:24;;;;;;;;;;;7.30;1.00;;;;;;4997381;28;20339;-75
2023/12/20 16:59:54;;;;;;;;;;;7.30;1.00;;;;;;4992385;28;19914;-75
2023/12/20 17:02:36;;;;;;;;;;;7.40;1.00;;;;;;5008474;28;20008;-79
2023/12/20 17:05:12;;;;;;;;;;;7.50;1.00;;;;;;4985933;28;19914;-78
2023/12/20 17:07:54;;;;;;;;;;;7.50;1.00;;;;;;4977558;28;19910;-76
2023/12/20 17:10:30;;;;;;;;;;;7.50;1.00;;;;;;4992336;28;19913;-87
2023/12/20 17:13:12;;;;;;;;;;;7.50;1.00;;;;;;5012939;28;19920;-77
2023/12/20 17:16:00;;;;;;;;;;;7.40;1.00;;;;;;4997168;28;20385;-80
2023/12/20 17:19:01;;;;;;;;;;;7.40;1.00;;;;;;4981540;28;20012;-80
2023/12/20 17:21:30;;;;;;;;;;;7.40;1.00;;;;;;4995252;28;19913;-79
2023/12/20 17:24:30;;;;;;;;;;;7.40;1.00;;;;;;4997605;28;19922;-80
2023/12/20 17:27:30;;;;;;;;;;;7.40;1.00;;;;;;4995666;28;19925;-80
2023/12/20 17:30:00;;;;;;;;;;;7.50;1.00;;;;;;5007596;28;19910;-81
2023/12/20 17:32:30;;;;;;;;;;;;;;;;;;4983032;28;20261;-75
2023/12/20 17:35:12;;;;;;;;;;;7.50;1.00;;;;;;4997765;28;19917;-76
2023/12/20 17:37:42;;;;;;;;;;;7.50;1.00;;;;;;4996102;28;20003;-75
2023/12/20 17:49:48;;;;;;;;;;;7.50;1.00;;;;;;4993354;28;19961;-77
2023/12/20 17:52:30;;;;;;;;;;;7.40;1.00;;;;;;4997229;28;19914;-76
2023/12/20 17:55:00;;;;;;;;;;;7.50;1.00;;;;;;4997284;28;19952;-77
2023/12/20 17:57:30;;;;;;;;;;;7.50;1.00;;;;;;4979516;28;19917;-77
2023/12/20 18:00:13;;;;;;;;;;;7.50;1.00;;;;;;4995944;28;19917;-78
2023/12/20 18:02:54;;;;;;;;;;;7.50;1.00;;;;;;4996065;28;19910;-81
2023/12/20 18:08:30;;;;;;;;;;;7.50;1.00;;;;;;5003090;28;19936;-80
2023/12/20 18:16:43;;;;;;;;;;;7.60;1.00;;;;;;5005876;28;19964;-79
2023/12/20 18:19:24;;;;;;;;;;;7.50;1.00;;;;;;4985031;28;19918;-79
2023/12/20 18:21:50;;;;;;;;;;;7.60;1.00;;;;;;4994981;28;19949;-80
2023/12/20 18:24:30;;;;;;;;;;;7.70;1.00;;;;;;5002441;28;20011;-80
2023/12/20 18:27:30;;;;;;;;;;;7.70;1.00;;;;;;4995261;28;20263;-80